Time;durP1;ratioP1;P1;durP2;ratioP2;P2;SDS_P1;SDS_P2;PMS_P1;PMS_P2;Temp;Humidity;BMP_temperature;BMP_pressure;BME280_temperature;BME280_humidity;BME280_pressure;Samples;Min_cycle;Max_cycle;Signal;HPM_P1;HPM_P2
2021/11/11 00:00:41;;;;;;;7.43;5.55;;;;;;;;;;143742;565;46012;-58
2021/11/11 00:03:09;;;;;;;9.63;4.78;;;;;;;;;;143738;587;46023;-58
2021/11/11 00:05:36;;;;;;;7.53;5.03;;;;;;;;;;143740;654;46020;-58
2021/11/11 00:08:03;;;;;;;7.25;4.85;;;;;;;;;;143742;661;45021;-59
2021/11/11 00:10:31;;;;;;;8.52;5.60;;;;;;;;;;143744;596;45021;-58
2021/11/11 00:12:59;;;;;;;6.93;4.80;;;;;;;;;;143742;649;46020;-56
2021/11/11 00:15:27;;;;;;;9.38;5.85;;;;;;;;;;143738;576;46021;-57
2021/11/11 00:17:54;;;;;;;8.85;5.22;;;;;;;;;;143741;564;45021;-58
2021/11/11 00:20:24;;;;;;;7.95;4.95;;;;;;;;;;143742;633;45020;-56
2021/11/11 00:22:52;;;;;;;8.02;4.95;;;;;;;;;;143736;570;46021;-59
2021/11/11 00:25:21;;;;;;;16.42;5.55;;;;;;;;;;143740;618;46034;-57
2021/11/11 00:27:49;;;;;;;8.15;5.30;;;;;;;;;;143742;622;45020;-59
2021/11/11 00:30:18;;;;;;;7.72;5.75;;;;;;;;;;143745;576;45021;-58
2021/11/11 00:32:45;;;;;;;9.55;5.65;;;;;;;;;;143739;623;46023;-58
2021/11/11 00:35:17;;;;;;;9.30;5.85;;;;;;;;;;143738;629;46020;-58
2021/11/11 00:37:45;;;;;;;9.70;6.57;;;;;;;;;;143743;623;45021;-58
2021/11/11 00:40:13;;;;;;;10.57;5.05;;;;;;;;;;143742;575;45021;-58
2021/11/11 00:42:40;;;;;;;10.38;6.22;;;;;;;;;;143741;640;46020;-57
2021/11/11 00:45:08;;;;;;;14.87;7.47;;;;;;;;;;143737;572;46021;-57
2021/11/11 00:47:35;;;;;;;11.77;6.62;;;;;;;;;;143737;622;46012;-58
2021/11/11 00:50:04;;;;;;;10.63;6.53;;;;;;;;;;143742;574;45020;-58
2021/11/11 00:52:31;;;;;;;13.05;7.85;;;;;;;;;;143740;565;46021;-57
2021/11/11 00:54:59;;;;;;;19.77;7.85;;;;;;;;;;143740;625;46020;-59
2021/11/11 00:57:26;;;;;;;10.88;5.62;;;;;;;;;;143741;661;46014;-59
2021/11/11 00:59:53;;;;;;;10.32;6.05;;;;;;;;;;143742;570;45021;-57
2021/11/11 01:02:20;;;;;;;12.55;7.15;;;;;;;;;;143739;572;46023;-58
2021/11/11 01:04:47;;;;;;;19.27;9.48;;;;;;;;;;143738;594;46020;-58
2021/11/11 01:07:14;;;;;;;20.52;10.13;;;;;;;;;;143742;608;45021;-57
2021/11/11 01:09:41;;;;;;;18.62;10.35;;;;;;;;;;143738;586;46013;-56
2021/11/11 01:12:09;;;;;;;19.25;10.13;;;;;;;;;;143739;655;46022;-57
2021/11/11 01:14:37;;;;;;;16.70;9.13;;;;;;;;;;143739;589;46021;-58
2021/11/11 01:17:05;;;;;;;18.15;9.50;;;;;;;;;;143743;618;45021;-59
2021/11/11 01:19:32;;;;;;;14.40;7.43;;;;;;;;;;143741;608;45020;-58
2021/11/11 01:22:00;;;;;;;17.67;8.38;;;;;;;;;;143740;605;46022;-57
2021/11/11 01:24:27;;;;;;;13.35;8.10;;;;;;;;;;143738;602;46020;-59
2021/11/11 01:26:54;;;;;;;17.83;8.50;;;;;;;;;;143742;578;45020;-57
2021/11/11 01:29:21;;;;;;;13.07;8.32;;;;;;;;;;143745;570;45021;-57
2021/11/11 01:31:48;;;;;;;14.35;8.25;;;;;;;;;;143739;569;46023;-58
2021/11/11 01:34:15;;;;;;;17.10;8.40;;;;;;;;;;143739;585;46020;-59
2021/11/11 01:36:42;;;;;;;18.75;8.93;;;;;;;;;;143742;596;45021;-57
2021/11/11 01:39:09;;;;;;;15.38;7.97;;;;;;;;;;143742;604;46025;-57
2021/11/11 01:41:36;;;;;;;23.90;11.90;;;;;;;;;;143734;601;47012;-57
2021/11/11 01:44:03;;;;;;;45.08;23.95;;;;;;;;;;143739;569;46020;-57
2021/11/11 01:46:30;;;;;;;20.17;11.25;;;;;;;;;;143742;663;45021;-56
2021/11/11 01:48:58;;;;;;;27.75;13.27;;;;;;;;;;143741;589;45020;-58
2021/11/11 01:51:25;;;;;;;17.50;10.20;;;;;;;;;;143738;589;46022;-58
2021/11/11 01:53:52;;;;;;;14.63;9.00;;;;;;;;;;143740;642;46020;-57
2021/11/11 01:56:22;;;;;;;16.65;9.35;;;;;;;;;;143742;580;45020;-59
2021/11/11 01:58:49;;;;;;;15.90;7.90;;;;;;;;;;143743;620;45020;-59
2021/11/11 02:01:18;;;;;;;14.80;8.38;;;;;;;;;;143738;611;46023;-57
2021/11/11 02:03:45;;;;;;;13.52;8.27;;;;;;;;;;143741;591;46020;-59
2021/11/11 02:06:13;;;;;;;15.77;7.60;;;;;;;;;;143744;605;45020;-57
2021/11/11 02:08:40;;;;;;;13.43;7.15;;;;;;;;;;143742;625;45021;-58
2021/11/11 02:11:07;;;;;;;12.80;7.45;;;;;;;;;;143739;588;46022;-58
2021/11/11 02:13:34;;;;;;;12.40;7.43;;;;;;;;;;143738;592;46020;-57
2021/11/11 02:16:01;;;;;;;18.15;8.75;;;;;;;;;;143742;630;45021;-58
2021/11/11 02:18:29;;;;;;;12.00;7.10;;;;;;;;;;143742;581;45020;-59
2021/11/11 02:20:56;;;;;;;12.75;6.35;;;;;;;;;;143739;636;46022;-59
2021/11/11 02:23:23;;;;;;;11.57;7.20;;;;;;;;;;143738;666;46021;-57
2021/11/11 02:25:50;;;;;;;9.77;5.22;;;;;;;;;;143739;617;46020;-56
2021/11/11 02:28:20;;;;;;;11.45;5.12;;;;;;;;;;143742;608;45020;-57
2021/11/11 02:30:51;;;;;;;12.25;5.32;;;;;;;;;;143739;658;46021;-57
2021/11/11 02:33:21;;;;;;;9.27;4.70;;;;;;;;;;143738;573;46020;-59
2021/11/11 02:35:48;;;;;;;7.40;4.68;;;;;;;;;;143737;576;45020;-58
2021/11/11 02:38:16;;;;;;;8.63;4.72;;;;;;;;;;143734;629;46013;-57
2021/11/11 02:40:44;;;;;;;8.35;4.47;;;;;;;;;;143732;580;46022;-58
2021/11/11 02:43:14;;;;;;;11.05;5.10;;;;;;;;;;143732;640;46020;-58
2021/11/11 02:45:45;;;;;;;8.45;4.60;;;;;;;;;;143736;567;45021;-58
2021/11/11 02:48:14;;;;;;;8.55;4.28;;;;;;;;;;143737;574;45020;-58
2021/11/11 02:50:41;;;;;;;13.02;5.20;;;;;;;;;;143734;571;46020;-58
2021/11/11 02:53:09;;;;;;;10.65;4.93;;;;;;;;;;143731;571;46021;-58
2021/11/11 02:55:36;;;;;;;9.60;4.60;;;;;;;;;;143734;567;46012;-59
2021/11/11 02:58:04;;;;;;;6.22;4.18;;;;;;;;;;143733;566;46012;-58
2021/11/11 03:00:39;;;;;;;9.80;4.30;;;;;;;;;;143730;695;46023;-58
2021/11/11 03:03:06;;;;;;;;;;;;;;;;;;143738;982;46020;-58
2021/11/11 03:05:33;;;;;;;6.47;4.20;;;;;;;;;;143746;576;45024;-57
2021/11/11 03:08:01;;;;;;;11.68;4.25;;;;;;;;;;143738;588;46021;-58
2021/11/11 03:10:29;;;;;;;7.75;3.75;;;;;;;;;;143732;624;46022;-57
2021/11/11 03:12:59;;;;;;;6.68;3.83;;;;;;;;;;143734;591;46020;-56
2021/11/11 03:15:27;;;;;;;8.50;4.35;;;;;;;;;;143739;611;45021;-57
2021/11/11 03:17:54;;;;;;;7.35;4.32;;;;;;;;;;143735;570;46020;-59
2021/11/11 03:20:21;;;;;;;10.05;4.28;;;;;;;;;;143734;647;46022;-58
2021/11/11 03:22:49;;;;;;;11.05;4.65;;;;;;;;;;143732;598;46021;-59
2021/11/11 03:25:20;;;;;;;8.80;4.25;;;;;;;;;;143736;714;45020;-57
2021/11/11 03:27:48;;;;;;;6.72;3.97;;;;;;;;;;143738;583;45020;-59
2021/11/11 03:30:17;;;;;;;7.22;3.45;;;;;;;;;;143734;564;46023;-57
2021/11/11 03:32:45;;;;;;;9.30;4.40;;;;;;;;;;143738;576;46020;-57
2021/11/11 03:35:13;;;;;;;5.82;3.87;;;;;;;;;;143735;608;45910;-57
2021/11/11 03:37:42;;;;;;;13.02;4.55;;;;;;;;;;143738;577;45021;-57
2021/11/11 03:40:20;;;;;;;9.13;4.85;;;;;;;;;;143735;582;46020;-57
2021/11/11 03:42:48;;;;;;;11.02;3.92;;;;;;;;;;143736;606;46020;-57
2021/11/11 03:45:17;;;;;;;8.70;4.20;;;;;;;;;;143738;674;45021;-58
2021/11/11 03:47:45;;;;;;;6.68;3.92;;;;;;;;;;143735;570;46012;-59
2021/11/11 03:50:13;;;;;;;8.82;3.58;;;;;;;;;;143736;619;46022;-57
2021/11/11 03:52:40;;;;;;;8.93;4.65;;;;;;;;;;143737;641;46021;-58
2021/11/11 03:55:09;;;;;;;8.15;4.03;;;;;;;;;;143736;647;45020;-57
2021/11/11 03:57:36;;;;;;;11.77;3.67;;;;;;;;;;143737;575;46020;-59
2021/11/11 04:00:06;;;;;;;8.10;4.32;;;;;;;;;;143732;661;46021;-57
2021/11/11 04:02:33;;;;;;;7.60;4.05;;;;;;;;;;143738;577;46020;-59
2021/11/11 04:05:01;;;;;;;10.93;3.90;;;;;;;;;;143741;659;45020;-57
2021/11/11 04:07:28;;;;;;;7.00;4.22;;;;;;;;;;143736;564;45021;-57
2021/11/11 04:09:55;;;;;;;9.18;4.00;;;;;;;;;;143732;608;46022;-58
2021/11/11 04:12:22;;;;;;;7.97;4.05;;;;;;;;;;143734;610;46020;-59
2021/11/11 04:14:49;;;;;;;9.93;4.40;;;;;;;;;;143741;601;45021;-59
2021/11/11 04:17:16;;;;;;;10.98;4.15;;;;;;;;;;143736;569;46010;-57
2021/11/11 04:19:43;;;;;;;9.55;3.95;;;;;;;;;;143732;591;47020;-59
2021/11/11 04:22:10;;;;;;;7.18;3.97;;;;;;;;;;143732;596;46021;-57
2021/11/11 04:24:38;;;;;;;9.95;4.03;;;;;;;;;;143734;595;45020;-59
2021/11/11 04:27:21;;;;;;;5.12;3.40;;;;;;;;;;143738;577;45020;-58
2021/11/11 04:32:34;;;;;;;10.57;5.32;;;;;;;;;;143733;642;46010;-59
2021/11/11 04:35:01;;;;;;;10.68;5.90;;;;;;;;;;143738;601;45020;-57
2021/11/11 04:37:30;;;;;;;10.20;6.07;;;;;;;;;;143739;656;45021;-58
2021/11/11 04:51:30;;;;;;;7.40;4.37;;;;;;;;;;143736;569;45024;-57
2021/11/11 04:59:38;;;;;;;9.52;5.60;;;;;;;;;;143737;659;46020;-58
2021/11/11 05:04:52;;;;;;;8.45;5.15;;;;;;;;;;143737;575;45916;-58
2021/11/11 05:07:19;;;;;;;8.13;4.72;;;;;;;;;;143736;598;45034;-57
2021/11/11 05:09:46;;;;;;;10.25;5.55;;;;;;;;;;143740;589;46020;-59
2021/11/11 05:12:14;;;;;;;13.88;5.97;;;;;;;;;;143734;563;46020;-58
2021/11/11 05:14:41;;;;;;;12.95;5.18;;;;;;;;;;143736;570;46021;-59
2021/11/11 05:17:09;;;;;;;8.88;4.93;;;;;;;;;;143737;576;45020;-59
2021/11/11 05:19:38;;;;;;;13.57;5.53;;;;;;;;;;143737;644;45020;-58
2021/11/11 05:22:05;;;;;;;10.65;4.78;;;;;;;;;;143737;594;46023;-57
2021/11/11 05:24:33;;;;;;;15.15;4.80;;;;;;;;;;143734;569;46020;-59
2021/11/11 05:27:04;;;;;;;9.10;4.43;;;;;;;;;;143737;619;45020;-57
2021/11/11 05:29:33;;;;;;;9.38;4.80;;;;;;;;;;143739;613;45021;-59
2021/11/11 05:32:00;;;;;;;10.40;4.10;;;;;;;;;;143736;565;46020;-58
2021/11/11 05:34:27;;;;;;;6.97;3.75;;;;;;;;;;143733;594;46020;-58
2021/11/11 05:36:54;;;;;;;10.20;4.30;;;;;;;;;;143743;639;45021;-58
2021/11/11 05:39:21;;;;;;;8.18;4.10;;;;;;;;;;143738;614;45020;-59
2021/11/11 05:41:48;;;;;;;13.82;4.57;;;;;;;;;;143735;591;46022;-57
2021/11/11 05:44:16;;;;;;;8.95;3.50;;;;;;;;;;143733;597;46021;-59
2021/11/11 05:46:43;;;;;;;7.80;3.75;;;;;;;;;;143739;674;45020;-60
2021/11/11 05:49:10;;;;;;;7.57;3.87;;;;;;;;;;143738;571;46010;-58
2021/11/11 05:51:37;;;;;;;8.73;3.65;;;;;;;;;;143738;609;46023;-58
2021/11/11 05:54:04;;;;;;;11.15;4.47;;;;;;;;;;143736;628;46020;-58
2021/11/11 05:56:31;;;;;;;8.35;3.55;;;;;;;;;;143739;581;45020;-59
2021/11/11 05:58:58;;;;;;;7.28;3.80;;;;;;;;;;143739;564;46021;-58
2021/11/11 06:01:25;;;;;;;11.70;3.80;;;;;;;;;;143738;641;46022;-59
2021/11/11 06:03:52;;;;;;;5.65;3.47;;;;;;;;;;143733;586;46020;-59
2021/11/11 06:06:19;;;;;;;11.50;3.58;;;;;;;;;;143738;585;45021;-58
2021/11/11 06:08:46;;;;;;;10.48;3.80;;;;;;;;;;143737;660;46019;-60
2021/11/11 06:11:13;;;;;;;11.05;3.50;;;;;;;;;;143735;590;46022;-58
2021/11/11 06:13:40;;;;;;;8.70;3.92;;;;;;;;;;143734;572;46021;-59
2021/11/11 06:16:07;;;;;;;6.93;3.80;;;;;;;;;;143740;587;45020;-58
2021/11/11 06:18:34;;;;;;;9.35;3.78;;;;;;;;;;143739;563;45020;-60
2021/11/11 06:21:01;;;;;;;9.85;4.37;;;;;;;;;;143736;564;46022;-58
2021/11/11 06:23:29;;;;;;;5.72;3.12;;;;;;;;;;143733;686;46020;-59
2021/11/11 06:25:57;;;;;;;8.43;4.03;;;;;;;;;;143742;610;45020;-57
2021/11/11 06:28:24;;;;;;;14.85;6.62;;;;;;;;;;143738;564;46021;-59
2021/11/11 06:30:51;;;;;;;24.83;10.68;;;;;;;;;;143734;625;46023;-57
2021/11/11 06:33:18;;;;;;;22.23;10.30;;;;;;;;;;143734;604;46020;-58
2021/11/11 06:35:46;;;;;;;20.48;10.07;;;;;;;;;;143738;569;45021;-57
2021/11/11 06:38:13;;;;;;;25.50;12.70;;;;;;;;;;143738;651;45020;-57
2021/11/11 06:40:40;;;;;;;19.05;10.30;;;;;;;;;;143731;594;46022;-59
2021/11/11 06:43:07;;;;;;;13.40;7.43;;;;;;;;;;143733;617;47012;-58
2021/11/11 06:45:43;;;;;;;10.40;5.37;;;;;;;;;;143737;647;45020;-59
2021/11/11 06:48:14;;;;;;;12.45;6.65;;;;;;;;;;143739;664;45020;-59
2021/11/11 06:50:43;;;;;;;11.93;5.90;;;;;;;;;;143735;574;46022;-59
2021/11/11 06:53:12;;;;;;;11.77;5.85;;;;;;;;;;143733;705;46020;-59
2021/11/11 06:55:42;;;;;;;15.02;7.07;;;;;;;;;;143737;575;45020;-59
2021/11/11 06:58:10;;;;;;;16.48;5.75;;;;;;;;;;143739;569;45021;-59
2021/11/11 07:00:38;;;;;;;9.68;5.00;;;;;;;;;;143734;590;46020;-58
2021/11/11 07:03:05;;;;;;;10.23;4.87;;;;;;;;;;143736;589;46020;-58
2021/11/11 07:05:32;;;;;;;10.27;5.07;;;;;;;;;;143735;580;46012;-57
2021/11/11 07:07:59;;;;;;;8.38;4.25;;;;;;;;;;143738;570;45020;-59
2021/11/11 07:10:26;;;;;;;8.80;4.60;;;;;;;;;;143735;591;46022;-57
2021/11/11 07:12:53;;;;;;;11.52;5.10;;;;;;;;;;143734;622;46022;-57
2021/11/11 07:15:20;;;;;;;10.85;4.90;;;;;;;;;;143737;569;45020;-58
2021/11/11 07:17:48;;;;;;;12.25;4.93;;;;;;;;;;143739;564;45020;-59
2021/11/11 07:20:16;;;;;;;7.95;3.95;;;;;;;;;;143733;593;46022;-59
2021/11/11 07:22:45;;;;;;;9.35;4.10;;;;;;;;;;143736;585;46020;-59
2021/11/11 07:25:14;;;;;;;9.73;4.22;;;;;;;;;;143737;579;45020;-57
2021/11/11 07:27:42;;;;;;;10.18;4.53;;;;;;;;;;143738;577;46020;-58
2021/11/11 07:30:17;;;;;;;9.35;5.43;;;;;;;;;;143736;589;46020;-57
2021/11/11 07:32:44;;;;;;;8.70;5.40;;;;;;;;;;143740;598;46020;-58
2021/11/11 07:35:11;;;;;;;14.55;4.60;;;;;;;;;;143739;581;45021;-58
2021/11/11 07:37:42;;;;;;;10.52;6.07;;;;;;;;;;143738;645;45021;-58
2021/11/11 07:40:11;;;;;;;12.07;5.20;;;;;;;;;;143736;725;46022;-58
2021/11/11 07:42:39;;;;;;;7.62;4.15;;;;;;;;;;143733;591;46021;-59
2021/11/11 07:45:08;;;;;;;11.27;5.03;;;;;;;;;;143737;593;45021;-58
2021/11/11 07:47:35;;;;;;;13.10;6.60;;;;;;;;;;143739;582;45020;-57
2021/11/11 07:50:07;;;;;;;10.35;3.47;;;;;;;;;;143735;572;46032;-57
2021/11/11 07:52:34;;;;;;;13.57;4.90;;;;;;;;;;143734;573;46020;-58
2021/11/11 07:55:02;;;;;;;8.25;4.18;;;;;;;;;;143736;563;45020;-57
2021/11/11 07:57:31;;;;;;;14.65;5.00;;;;;;;;;;143738;609;46020;-57
2021/11/11 07:59:58;;;;;;;8.90;4.40;;;;;;;;;;143733;598;46023;-57
2021/11/11 08:02:27;;;;;;;9.57;4.55;;;;;;;;;;143733;590;46020;-58
2021/11/11 08:04:54;;;;;;;9.60;4.57;;;;;;;;;;143740;570;45021;-57
2021/11/11 08:07:21;;;;;;;11.20;4.03;;;;;;;;;;143738;569;45021;-57
2021/11/11 08:09:49;;;;;;;9.90;4.30;;;;;;;;;;143734;584;46022;-56
2021/11/11 08:12:17;;;;;;;8.30;3.85;;;;;;;;;;143734;611;46021;-58
2021/11/11 08:14:44;;;;;;;10.32;4.37;;;;;;;;;;143737;565;45021;-56
2021/11/11 08:17:11;;;;;;;9.30;4.68;;;;;;;;;;143736;613;46010;-56
2021/11/11 08:19:39;;;;;;;10.77;4.00;;;;;;;;;;143736;569;46022;-57
2021/11/11 08:22:06;;;;;;;8.20;3.85;;;;;;;;;;143735;594;46020;-56
2021/11/11 08:24:40;;;;;;;7.12;4.00;;;;;;;;;;143739;602;45020;-56
2021/11/11 08:27:09;;;;;;;6.22;3.47;;;;;;;;;;143741;617;46020;-56
2021/11/11 08:29:36;;;;;;;8.75;3.80;;;;;;;;;;143733;584;46023;-56
2021/11/11 08:32:03;;;;;;;4.55;3.03;;;;;;;;;;143733;635;46916;-56
2021/11/11 08:34:30;;;;;;;8.05;3.72;;;;;;;;;;143736;604;45021;-56
2021/11/11 08:36:57;;;;;;;6.72;3.40;;;;;;;;;;143735;633;46010;-57
2021/11/11 08:39:24;;;;;;;7.00;3.97;;;;;;;;;;143734;598;46022;-57
2021/11/11 08:41:52;;;;;;;6.82;3.60;;;;;;;;;;143736;604;46021;-58
2021/11/11 08:44:19;;;;;;;13.35;4.22;;;;;;;;;;143737;572;46012;-57
2021/11/11 08:46:49;;;;;;;10.88;5.85;;;;;;;;;;143739;565;45020;-57
2021/11/11 08:49:17;;;;;;;11.82;7.25;;;;;;;;;;143734;620;46022;-57
2021/11/11 08:51:45;;;;;;;9.45;5.20;;;;;;;;;;143739;565;46020;-58
2021/11/11 08:54:12;;;;;;;8.05;4.85;;;;;;;;;;143738;632;45020;-58
2021/11/11 08:56:39;;;;;;;14.10;8.77;;;;;;;;;;143738;585;45021;-57
2021/11/11 08:59:05;;;;;;;14.70;8.07;;;;;;;;;;143733;574;47023;-57
2021/11/11 09:01:32;;;;;;;16.83;9.32;;;;;;;;;;143733;572;46020;-58
2021/11/11 09:04:00;;;;;;;13.38;6.85;;;;;;;;;;143738;647;45021;-57
2021/11/11 09:06:27;;;;;;;8.95;4.80;;;;;;;;;;143738;593;45021;-59
2021/11/11 09:08:54;;;;;;;10.50;5.78;;;;;;;;;;143733;641;46022;-57
2021/11/11 09:11:22;;;;;;;10.52;6.15;;;;;;;;;;143732;586;48013;-57
2021/11/11 09:13:49;;;;;;;10.07;4.65;;;;;;;;;;143738;569;45021;-58
2021/11/11 09:16:16;;;;;;;18.23;9.15;;;;;;;;;;143736;575;46010;-58
2021/11/11 09:18:44;;;;;;;12.25;5.82;;;;;;;;;;143734;602;46022;-58
2021/11/11 09:21:13;;;;;;;15.77;9.63;;;;;;;;;;143734;586;46021;-56
2021/11/11 09:23:41;;;;;;;16.05;8.68;;;;;;;;;;143736;566;45020;-57
2021/11/11 09:26:09;;;;;;;10.25;6.43;;;;;;;;;;143737;593;46020;-56
2021/11/11 09:28:40;;;;;;;10.65;6.18;;;;;;;;;;143734;578;46023;-57
2021/11/11 09:31:10;;;;;;;7.78;4.37;;;;;;;;;;143734;633;46020;-57
2021/11/11 09:33:38;;;;;;;10.95;5.55;;;;;;;;;;143738;582;45020;-57
2021/11/11 09:36:05;;;;;;;13.02;6.43;;;;;;;;;;143736;587;46021;-58
2021/11/11 09:38:33;;;;;;;11.27;5.80;;;;;;;;;;143736;578;46022;-56
2021/11/11 09:41:00;;;;;;;8.00;5.18;;;;;;;;;;143733;567;46020;-57
2021/11/11 09:43:27;;;;;;;11.40;6.20;;;;;;;;;;143739;611;45021;-58
2021/11/11 09:45:54;;;;;;;7.35;3.83;;;;;;;;;;143735;627;46010;-57
2021/11/11 09:48:21;;;;;;;14.50;5.62;;;;;;;;;;143732;573;46022;-56
2021/11/11 09:50:48;;;;;;;12.27;6.75;;;;;;;;;;143733;592;46021;-56
2021/11/11 09:53:22;;;;;;;7.87;4.72;;;;;;;;;;143734;569;45020;-57
2021/11/11 09:58:34;;;;;;;7.43;4.85;;;;;;;;;;143734;625;45023;-57
2021/11/11 10:01:03;;;;;;;6.70;4.10;;;;;;;;;;143733;594;46020;-57
2021/11/11 10:03:30;;;;;;;7.60;4.60;;;;;;;;;;143742;585;45021;-57
2021/11/11 10:05:58;;;;;;;9.55;3.85;;;;;;;;;;143736;620;45021;-56
2021/11/11 10:08:40;;;;;;;10.25;4.57;;;;;;;;;;143733;576;46020;-56
2021/11/11 10:11:33;;;;;;;8.80;3.58;;;;;;;;;;143734;565;46021;-58
2021/11/11 10:14:10;;;;;;;9.77;5.37;;;;;;;;;;143733;622;45020;-57
2021/11/11 10:16:49;;;;;;;9.00;4.47;;;;;;;;;;143736;622;45020;-57
2021/11/11 10:19:17;;;;;;;8.35;3.17;;;;;;;;;;143732;631;46022;-57
2021/11/11 10:22:07;;;;;;;7.65;4.25;;;;;;;;;;143733;644;46020;-55
2021/11/11 10:24:47;;;;;;;7.15;3.92;;;;;;;;;;143735;575;45020;-56
2021/11/11 10:27:24;;;;;;;10.50;3.92;;;;;;;;;;143735;589;46021;-57
2021/11/11 10:30:05;;;;;;;9.00;3.70;;;;;;;;;;143734;588;46912;-56
2021/11/11 10:32:45;;;;;;;6.93;3.75;;;;;;;;;;143736;564;46020;-58
2021/11/11 10:35:23;;;;;;;12.27;4.00;;;;;;;;;;143739;564;45021;-59
2021/11/11 10:37:58;;;;;;;10.88;4.32;;;;;;;;;;143735;594;46010;-58
2021/11/11 10:40:40;;;;;;;10.07;4.20;;;;;;;;;;143734;570;46022;-57
2021/11/11 10:43:13;;;;;;;6.15;3.37;;;;;;;;;;143733;581;46021;-57
2021/11/11 10:45:43;;;;;;;6.05;3.60;;;;;;;;;;143737;565;45020;-57
2021/11/11 10:48:12;;;;;;;8.40;4.03;;;;;;;;;;143734;570;45020;-57
2021/11/11 10:50:45;;;;;;;6.22;3.90;;;;;;;;;;143732;565;46023;-57
2021/11/11 10:53:16;;;;;;;8.05;4.28;;;;;;;;;;143733;581;46020;-56
2021/11/11 10:55:54;;;;;;;8.30;3.90;;;;;;;;;;143739;567;45021;-58
2021/11/11 10:58:24;;;;;;;7.45;3.83;;;;;;;;;;143737;575;45021;-57
2021/11/11 11:01:00;;;;;;;7.00;4.00;;;;;;;;;;143733;570;46022;-56
2021/11/11 11:03:42;;;;;;;6.50;3.75;;;;;;;;;;143733;582;46021;-58
2021/11/11 11:06:17;;;;;;;9.50;3.95;;;;;;;;;;143734;631;45021;-57
2021/11/11 11:08:50;;;;;;;10.27;4.00;;;;;;;;;;143736;564;46020;-58
2021/11/11 11:11:23;;;;;;;7.43;4.28;;;;;;;;;;143732;581;46022;-56
2021/11/11 11:14:00;;;;;;;7.62;4.40;;;;;;;;;;143731;586;46020;-58
2021/11/11 11:16:37;;;;;;;7.28;3.80;;;;;;;;;;143732;635;45020;-58
2021/11/11 11:19:12;;;;;;;5.85;4.20;;;;;;;;;;143737;591;45022;-57
2021/11/11 11:21:45;;;;;;;13.02;4.07;;;;;;;;;;143735;571;45023;-59
2021/11/11 11:24:15;;;;;;;5.97;3.83;;;;;;;;;;143732;602;46020;-57
2021/11/11 11:27:03;;;;;;;4.70;3.72;;;;;;;;;;143737;565;45021;-58
2021/11/11 11:32:32;;;;;;;10.77;3.80;;;;;;;;;;143736;642;45024;-56
2021/11/11 11:35:03;;;;;;;7.57;4.25;;;;;;;;;;143731;589;46021;-58
2021/11/11 11:37:34;;;;;;;6.03;4.07;;;;;;;;;;143736;582;45020;-58
2021/11/11 11:40:14;;;;;;;5.30;3.97;;;;;;;;;;143736;595;45021;-58
2021/11/11 11:42:43;;;;;;;8.93;4.20;;;;;;;;;;143734;589;46023;-59
2021/11/11 11:45:13;;;;;;;8.43;3.70;;;;;;;;;;143729;586;46020;-58
2021/11/11 11:47:49;;;;;;;8.65;4.03;;;;;;;;;;143737;602;45021;-59
2021/11/11 11:50:24;;;;;;;9.30;3.75;;;;;;;;;;143737;639;45021;-57
2021/11/11 11:52:57;;;;;;;6.18;3.72;;;;;;;;;;143738;587;46020;-57
2021/11/11 11:55:30;;;;;;;5.62;4.15;;;;;;;;;;143735;618;46918;-58
2021/11/11 12:03:50;;;;;;;9.88;5.25;;;;;;;;;;143738;585;45048;-59
2021/11/11 12:06:55;;;;;;;9.88;6.65;;;;;;;;;;143732;589;46020;-59
2021/11/11 12:38:35;;;;;;;6.30;4.25;;;;;;;;;;143735;563;46020;-57
2021/11/11 12:41:08;;;;;;;9.52;5.32;;;;;;;;;;143731;576;46021;-56
2021/11/11 12:43:35;;;;;;;6.15;4.07;;;;;;;;;;143735;576;45020;-58
2021/11/11 12:46:03;;;;;;;8.45;4.45;;;;;;;;;;143740;576;45020;-57
2021/11/11 12:48:31;;;;;;;11.05;5.40;;;;;;;;;;143733;644;46021;-57
2021/11/11 12:51:15;;;;;;;16.62;10.93;;;;;;;;;;143733;579;46020;-57
2021/11/11 12:53:47;;;;;;;10.23;5.47;;;;;;;;;;143735;626;45020;-57
2021/11/11 12:56:25;;;;;;;11.52;6.85;;;;;;;;;;143736;618;46021;-58
2021/11/11 12:59:00;;;;;;;9.32;6.15;;;;;;;;;;143733;587;46022;-58
2021/11/11 13:01:55;;;;;;;9.27;4.90;;;;;;;;;;143736;655;46020;-57
2021/11/11 13:04:23;;;;;;;7.50;4.75;;;;;;;;;;143737;566;45021;-57
2021/11/11 13:07:00;;;;;;;7.47;5.07;;;;;;;;;;143737;607;45020;-58
2021/11/11 13:09:35;;;;;;;11.73;6.78;;;;;;;;;;143737;589;46022;-57
2021/11/11 13:12:14;;;;;;;10.13;6.70;;;;;;;;;;143735;577;46020;-57
2021/11/11 13:14:56;;;;;;;8.57;5.35;;;;;;;;;;143737;646;45020;-57
2021/11/11 13:17:28;;;;;;;9.35;6.10;;;;;;;;;;143737;566;45021;-56
2021/11/11 13:20:04;;;;;;;8.90;6.45;;;;;;;;;;143733;674;46023;-57
2021/11/11 14:01:09;;;;;;;6.50;4.15;;;;;;;;;;143733;571;46020;-55
2021/11/11 15:15:10;;;;;;;6.57;4.60;;;;;;;;;;143734;577;46020;-56
2021/11/11 15:17:46;;;;;;;8.10;3.53;;;;;;;;;;143734;569;45916;-56
2021/11/11 16:00:59;;;;;;;12.85;5.72;;;;;;;;;;143737;646;45024;-56
2021/11/11 16:19:40;;;;;;;8.85;5.22;;;;;;;;;;143738;621;45022;-57
2021/11/11 16:20:19;;;;;;;10.90;5.35;;;;;;;;;;143737;598;46020;-57
2021/11/11 16:22:58;;;;;;;7.82;5.07;;;;;;;;;;143733;571;46022;-56
2021/11/11 16:25:39;;;;;;;8.50;5.28;;;;;;;;;;143734;609;47916;-56
2021/11/11 16:28:07;;;;;;;7.87;5.12;;;;;;;;;;143735;636;46910;-55
2021/11/11 16:30:34;;;;;;;6.32;4.45;;;;;;;;;;143743;572;45020;-57
2021/11/11 16:33:02;;;;;;;8.68;4.82;;;;;;;;;;143734;592;46023;-55
2021/11/11 16:35:28;;;;;;;9.38;4.43;;;;;;;;;;143738;613;46012;-56
2021/11/11 16:37:56;;;;;;;6.40;4.80;;;;;;;;;;143736;647;45020;-57
2021/11/11 16:40:26;;;;;;;9.38;5.20;;;;;;;;;;143737;574;45021;-56
2021/11/11 16:42:53;;;;;;;7.53;5.03;;;;;;;;;;143734;639;46022;-57
2021/11/11 16:45:22;;;;;;;6.85;5.03;;;;;;;;;;143734;620;46020;-56
2021/11/11 16:47:50;;;;;;;10.35;5.20;;;;;;;;;;143732;589;46012;-56
2021/11/11 16:50:19;;;;;;;7.05;4.93;;;;;;;;;;143737;593;45020;-56
2021/11/11 16:52:46;;;;;;;10.32;4.93;;;;;;;;;;143736;635;46022;-55
2021/11/11 16:55:13;;;;;;;10.40;5.43;;;;;;;;;;143733;644;46021;-55
2021/11/11 16:57:40;;;;;;;10.73;5.47;;;;;;;;;;143738;564;45020;-57
2021/11/11 17:00:09;;;;;;;8.15;4.80;;;;;;;;;;143737;601;45020;-57
2021/11/11 17:02:36;;;;;;;7.28;5.32;;;;;;;;;;143734;619;46021;-56
2021/11/11 17:05:03;;;;;;;7.68;5.00;;;;;;;;;;143736;594;46020;-56
2021/11/11 17:07:30;;;;;;;8.07;4.80;;;;;;;;;;143739;698;45910;-56
2021/11/11 17:09:57;;;;;;;7.32;4.72;;;;;;;;;;143737;656;45021;-58
2021/11/11 17:12:27;;;;;;;7.05;4.50;;;;;;;;;;143734;605;46022;-57
2021/11/11 17:14:56;;;;;;;9.43;4.80;;;;;;;;;;143738;595;46020;-55
2021/11/11 17:17:24;;;;;;;8.35;4.75;;;;;;;;;;143736;718;45021;-55
2021/11/11 17:19:54;;;;;;;7.47;4.50;;;;;;;;;;143737;588;46012;-57
2021/11/11 17:22:32;;;;;;;9.45;5.70;;;;;;;;;;143736;621;46022;-56
2021/11/11 17:25:23;;;;;;;9.20;5.00;;;;;;;;;;143733;592;46917;-57
2021/11/11 17:27:54;;;;;;;6.37;4.65;;;;;;;;;;143736;630;45020;-56
2021/11/11 17:30:21;;;;;;;14.77;6.10;;;;;;;;;;143737;564;46011;-56
2021/11/11 17:32:48;;;;;;;8.68;4.70;;;;;;;;;;143732;614;46023;-56
2021/11/11 17:35:16;;;;;;;11.25;5.47;;;;;;;;;;143736;605;46020;-57
2021/11/11 17:37:43;;;;;;;12.05;5.82;;;;;;;;;;143731;583;46012;-56
2021/11/11 17:40:11;;;;;;;9.93;5.10;;;;;;;;;;143738;589;45021;-56
2021/11/11 17:42:38;;;;;;;8.90;5.95;;;;;;;;;;143736;678;46020;-57
2021/11/11 17:45:06;;;;;;;12.02;5.60;;;;;;;;;;143737;639;46020;-56
2021/11/11 17:47:36;;;;;;;11.07;4.95;;;;;;;;;;143738;575;45021;-58
2021/11/11 17:50:16;;;;;;;10.63;5.07;;;;;;;;;;143738;570;45020;-56
2021/11/11 17:52:49;;;;;;;8.85;5.10;;;;;;;;;;143733;593;46022;-56
2021/11/11 17:55:19;;;;;;;9.85;4.87;;;;;;;;;;143736;611;46021;-57
2021/11/11 17:57:47;;;;;;;17.27;6.20;;;;;;;;;;143738;614;45020;-56
2021/11/11 18:00:14;;;;;;;21.05;6.53;;;;;;;;;;143738;577;45021;-55
2021/11/11 18:02:41;;;;;;;10.57;5.93;;;;;;;;;;143734;574;46023;-57
2021/11/11 18:05:10;;;;;;;12.05;5.95;;;;;;;;;;143733;564;46020;-56
2021/11/11 18:07:37;;;;;;;11.80;6.05;;;;;;;;;;143739;569;45021;-55
2021/11/11 18:10:09;;;;;;;11.15;6.22;;;;;;;;;;143739;570;45021;-56
2021/11/11 18:12:44;;;;;;;7.65;5.68;;;;;;;;;;143735;607;46022;-55
2021/11/11 18:15:24;;;;;;;10.02;5.43;;;;;;;;;;143739;573;46021;-57
2021/11/11 18:17:51;;;;;;;9.68;4.87;;;;;;;;;;143735;576;45912;-57
2021/11/11 18:20:19;;;;;;;15.57;6.40;;;;;;;;;;143738;579;45020;-56
2021/11/11 18:22:46;;;;;;;12.70;7.25;;;;;;;;;;143736;575;46021;-56
2021/11/11 18:25:15;;;;;;;8.57;4.75;;;;;;;;;;143733;576;46020;-56
2021/11/11 18:27:42;;;;;;;9.02;5.87;;;;;;;;;;143739;570;45020;-56
2021/11/11 18:30:26;;;;;;;9.93;5.82;;;;;;;;;;143738;571;45021;-55
2021/11/11 18:33:14;;;;;;;12.27;6.00;;;;;;;;;;143733;593;46023;-56
2021/11/11 18:35:52;;;;;;;9.63;5.50;;;;;;;;;;143736;642;46020;-56
2021/11/11 18:38:23;;;;;;;8.68;5.30;;;;;;;;;;143739;599;45021;-56